sensor_id;sensor_type;location;lat;lon;timestamp;temperature;humidity
47765;DHT22;33529;49.242;8.670;2023-05-07T00:01:29;14.70;99.90
47765;DHT22;33529;49.242;8.670;2023-05-07T00:03:56;14.70;99.90
47765;DHT22;33529;49.242;8.670;2023-05-07T00:06:23;14.70;99.90
47765;DHT22;33529;49.242;8.670;2023-05-07T00:08:50;14.80;99.90
47765;DHT22;33529;49.242;8.670;2023-05-07T00:11:17;14.80;99.90
47765;DHT22;33529;49.242;8.670;2023-05-07T00:13:44;14.80;99.90
47765;DHT22;33529;49.242;8.670;2023-05-07T00:16:11;14.80;99.90
47765;DHT22;33529;49.242;8.670;2023-05-07T00:18:38;14.80;99.90
47765;DHT22;33529;49.242;8.670;2023-05-07T00:21:04;14.90;99.90
47765;DHT22;33529;49.242;8.670;2023-05-07T00:23:31;14.80;99.90
47765;DHT22;33529;49.242;8.670;2023-05-07T00:25:58;14.90;99.90
47765;DHT22;33529;49.242;8.670;2023-05-07T00:28:25;14.90;99.90
47765;DHT22;33529;49.242;8.670;2023-05-07T00:30:52;14.90;99.90
47765;DHT22;33529;49.242;8.670;2023-05-07T00:33:19;14.90;99.90
47765;DHT22;33529;49.242;8.670;2023-05-07T00:35:47;14.80;99.90
47765;DHT22;33529;49.242;8.670;2023-05-07T00:38:14;14.80;99.90
47765;DHT22;33529;49.242;8.670;2023-05-07T00:40:41;14.80;99.90
47765;DHT22;33529;49.242;8.670;2023-05-07T00:43:08;14.80;99.90
47765;DHT22;33529;49.242;8.670;2023-05-07T00:45:35;14.80;99.90
47765;DHT22;33529;49.242;8.670;2023-05-07T00:48:02;14.70;99.90
47765;DHT22;33529;49.242;8.670;2023-05-07T00:50:30;14.70;99.90
47765;DHT22;33529;49.242;8.670;2023-05-07T00:52:58;14.70;99.90
47765;DHT22;33529;49.242;8.670;2023-05-07T00:55:26;14.70;99.90
47765;DHT22;33529;49.242;8.670;2023-05-07T00:57:53;14.60;99.90
47765;DHT22;33529;49.242;8.670;2023-05-07T01:00:20;14.50;99.90
47765;DHT22;33529;49.242;8.670;2023-05-07T01:02:47;14.50;99.90
47765;DHT22;33529;49.242;8.670;2023-05-07T01:05:17;14.40;99.90
47765;DHT22;33529;49.242;8.670;2023-05-07T01:07:45;14.30;99.90
47765;DHT22;33529;49.242;8.670;2023-05-07T01:10:13;14.30;99.90
47765;DHT22;33529;49.242;8.670;2023-05-07T01:12:41;14.30;99.90
47765;DHT22;33529;49.242;8.670;2023-05-07T01:15:09;14.30;99.90
47765;DHT22;33529;49.242;8.670;2023-05-07T01:17:39;14.30;99.90
47765;DHT22;33529;49.242;8.670;2023-05-07T01:20:12;14.30;99.90
47765;DHT22;33529;49.242;8.670;2023-05-07T01:22:43;14.30;99.90
47765;DHT22;33529;49.242;8.670;2023-05-07T01:25:10;14.30;99.90
47765;DHT22;33529;49.242;8.670;2023-05-07T01:27:42;14.40;99.90
47765;DHT22;33529;49.242;8.670;2023-05-07T01:30:09;14.40;99.90
47765;DHT22;33529;49.242;8.670;2023-05-07T01:32:57;14.40;99.90
47765;DHT22;33529;49.242;8.670;2023-05-07T01:35:28;14.40;99.90
47765;DHT22;33529;49.242;8.670;2023-05-07T01:37:56;14.40;99.90
47765;DHT22;33529;49.242;8.670;2023-05-07T01:40:24;14.40;99.90
47765;DHT22;33529;49.242;8.670;2023-05-07T01:42:53;14.40;99.90
47765;DHT22;33529;49.242;8.670;2023-05-07T01:45:21;14.40;99.90
47765;DHT22;33529;49.242;8.670;2023-05-07T01:47:49;14.30;99.90
47765;DHT22;33529;49.242;8.670;2023-05-07T01:50:18;14.30;99.90
47765;DHT22;33529;49.242;8.670;2023-05-07T01:52:46;14.30;99.90
47765;DHT22;33529;49.242;8.670;2023-05-07T01:55:13;14.30;99.90
47765;DHT22;33529;49.242;8.670;2023-05-07T01:57:40;14.30;99.90
47765;DHT22;33529;49.242;8.670;2023-05-07T02:00:08;14.30;99.90
47765;DHT22;33529;49.242;8.670;2023-05-07T02:02:42;14.30;99.90
47765;DHT22;33529;49.242;8.670;2023-05-07T02:05:20;14.30;99.90
47765;DHT22;33529;49.242;8.670;2023-05-07T02:07:54;14.20;99.90
47765;DHT22;33529;49.242;8.670;2023-05-07T02:10:21;14.20;99.90
47765;DHT22;33529;49.242;8.670;2023-05-07T02:12:48;14.20;99.90
47765;DHT22;33529;49.242;8.670;2023-05-07T02:15:15;14.10;99.90
47765;DHT22;33529;49.242;8.670;2023-05-07T02:18:05;14.20;99.90
47765;DHT22;33529;49.242;8.670;2023-05-07T02:20:33;14.10;99.90
47765;DHT22;33529;49.242;8.670;2023-05-07T02:23:01;14.00;99.90
47765;DHT22;33529;49.242;8.670;2023-05-07T02:25:29;13.90;99.90
47765;DHT22;33529;49.242;8.670;2023-05-07T02:27:57;13.90;99.90
47765;DHT22;33529;49.242;8.670;2023-05-07T02:30:37;13.80;99.90
47765;DHT22;33529;49.242;8.670;2023-05-07T02:33:04;13.60;99.90
47765;DHT22;33529;49.242;8.670;2023-05-07T02:35:30;13.60;99.90
47765;DHT22;33529;49.242;8.670;2023-05-07T02:37:57;13.60;99.90
47765;DHT22;33529;49.242;8.670;2023-05-07T02:40:25;13.60;99.90
47765;DHT22;33529;49.242;8.670;2023-05-07T02:42:52;13.60;99.90
47765;DHT22;33529;49.242;8.670;2023-05-07T02:45:19;13.60;99.90
47765;DHT22;33529;49.242;8.670;2023-05-07T02:47:48;13.60;99.90
47765;DHT22;33529;49.242;8.670;2023-05-07T02:50:15;13.60;99.90
47765;DHT22;33529;49.242;8.670;2023-05-07T02:52:41;13.60;99.90
47765;DHT22;33529;49.242;8.670;2023-05-07T02:55:08;13.50;99.90
47765;DHT22;33529;49.242;8.670;2023-05-07T02:57:35;13.50;99.90
47765;DHT22;33529;49.242;8.670;2023-05-07T03:00:13;13.40;99.90
47765;DHT22;33529;49.242;8.670;2023-05-07T03:02:46;13.30;99.90
47765;DHT22;33529;49.242;8.670;2023-05-07T03:05:14;13.20;99.90
47765;DHT22;33529;49.242;8.670;2023-05-07T03:07:41;13.30;99.90
47765;DHT22;33529;49.242;8.670;2023-05-07T03:10:12;13.20;99.90
47765;DHT22;33529;49.242;8.670;2023-05-07T03:12:39;13.20;99.90
47765;DHT22;33529;49.242;8.670;2023-05-07T03:15:08;13.10;99.90
47765;DHT22;33529;49.242;8.670;2023-05-07T03:17:35;13.00;99.90
47765;DHT22;33529;49.242;8.670;2023-05-07T03:20:02;13.10;99.90
47765;DHT22;33529;49.242;8.670;2023-05-07T03:22:29;13.00;99.90
47765;DHT22;33529;49.242;8.670;2023-05-07T03:24:56;13.10;99.90
47765;DHT22;33529;49.242;8.670;2023-05-07T03:27:23;13.10;99.90
47765;DHT22;33529;49.242;8.670;2023-05-07T03:29:52;13.20;99.90
47765;DHT22;33529;49.242;8.670;2023-05-07T03:32:19;13.20;99.90
47765;DHT22;33529;49.242;8.670;2023-05-07T03:34:47;13.30;99.90
47765;DHT22;33529;49.242;8.670;2023-05-07T03:37:14;13.30;99.90
47765;DHT22;33529;49.242;8.670;2023-05-07T03:39:42;13.40;99.90
47765;DHT22;33529;49.242;8.670;2023-05-07T03:42:09;13.40;99.90
47765;DHT22;33529;49.242;8.670;2023-05-07T03:44:37;13.40;99.90
47765;DHT22;33529;49.242;8.670;2023-05-07T03:47:04;13.40;99.90
47765;DHT22;33529;49.242;8.670;2023-05-07T03:49:31;13.40;99.90
47765;DHT22;33529;49.242;8.670;2023-05-07T03:51:59;13.40;99.90
47765;DHT22;33529;49.242;8.670;2023-05-07T03:54:26;13.50;99.90
47765;DHT22;33529;49.242;8.670;2023-05-07T03:56:53;13.50;99.90
47765;DHT22;33529;49.242;8.670;2023-05-07T03:59:20;13.40;99.90
47765;DHT22;33529;49.242;8.670;2023-05-07T04:01:48;13.40;99.90
47765;DHT22;33529;49.242;8.670;2023-05-07T04:04:17;13.40;99.90
47765;DHT22;33529;49.242;8.670;2023-05-07T04:06:44;13.40;99.90
47765;DHT22;33529;49.242;8.670;2023-05-07T04:09:12;13.40;99.90
47765;DHT22;33529;49.242;8.670;2023-05-07T04:11:39;13.30;99.90
47765;DHT22;33529;49.242;8.670;2023-05-07T04:14:10;13.30;99.90
47765;DHT22;33529;49.242;8.670;2023-05-07T04:16:38;13.30;99.90
47765;DHT22;33529;49.242;8.670;2023-05-07T04:19:07;13.30;99.90
47765;DHT22;33529;49.242;8.670;2023-05-07T04:21:34;13.30;99.90
47765;DHT22;33529;49.242;8.670;2023-05-07T04:24:03;13.30;99.90
47765;DHT22;33529;49.242;8.670;2023-05-07T04:26:30;13.20;99.90
47765;DHT22;33529;49.242;8.670;2023-05-07T04:28:58;13.20;99.90
47765;DHT22;33529;49.242;8.670;2023-05-07T04:31:30;13.20;99.90
47765;DHT22;33529;49.242;8.670;2023-05-07T04:33:58;13.20;99.90
47765;DHT22;33529;49.242;8.670;2023-05-07T04:36:25;13.20;99.90
47765;DHT22;33529;49.242;8.670;2023-05-07T04:38:59;13.30;99.90
47765;DHT22;33529;49.242;8.670;2023-05-07T04:41:26;13.30;99.90
47765;DHT22;33529;49.242;8.670;2023-05-07T04:43:53;13.40;99.90
47765;DHT22;33529;49.242;8.670;2023-05-07T04:46:22;13.50;99.90
47765;DHT22;33529;49.242;8.670;2023-05-07T04:48:51;13.50;99.90
47765;DHT22;33529;49.242;8.670;2023-05-07T04:51:18;13.50;99.90
47765;DHT22;33529;49.242;8.670;2023-05-07T04:53:45;13.60;99.90
47765;DHT22;33529;49.242;8.670;2023-05-07T04:56:12;13.60;99.90
47765;DHT22;33529;49.242;8.670;2023-05-07T04:58:41;13.60;99.90
47765;DHT22;33529;49.242;8.670;2023-05-07T05:01:09;13.70;99.90
47765;DHT22;33529;49.242;8.670;2023-05-07T05:03:37;13.70;99.90
47765;DHT22;33529;49.242;8.670;2023-05-07T05:06:04;13.80;99.90
47765;DHT22;33529;49.242;8.670;2023-05-07T05:08:33;13.90;99.90
47765;DHT22;33529;49.242;8.670;2023-05-07T05:11:02;13.90;99.90
47765;DHT22;33529;49.242;8.670;2023-05-07T05:13:33;13.90;99.90
47765;DHT22;33529;49.242;8.670;2023-05-07T05:16:05;14.00;99.90
47765;DHT22;33529;49.242;8.670;2023-05-07T05:18:33;14.00;99.90
47765;DHT22;33529;49.242;8.670;2023-05-07T05:20:59;14.20;99.90
47765;DHT22;33529;49.242;8.670;2023-05-07T05:23:27;14.20;99.90
47765;DHT22;33529;49.242;8.670;2023-05-07T05:25:58;14.20;99.90
47765;DHT22;33529;49.242;8.670;2023-05-07T05:28:28;14.40;99.90
47765;DHT22;33529;49.242;8.670;2023-05-07T05:30:55;14.50;99.90
47765;DHT22;33529;49.242;8.670;2023-05-07T05:33:23;14.50;99.90
47765;DHT22;33529;49.242;8.670;2023-05-07T05:35:50;14.60;99.90
47765;DHT22;33529;49.242;8.670;2023-05-07T05:38:17;14.80;99.90
47765;DHT22;33529;49.242;8.670;2023-05-07T05:40:44;14.80;99.90
47765;DHT22;33529;49.242;8.670;2023-05-07T05:43:11;14.90;99.90
47765;DHT22;33529;49.242;8.670;2023-05-07T05:45:38;15.00;99.90
47765;DHT22;33529;49.242;8.670;2023-05-07T05:48:06;15.10;99.90
47765;DHT22;33529;49.242;8.670;2023-05-07T05:50:33;15.20;99.90
47765;DHT22;33529;49.242;8.670;2023-05-07T05:53:00;15.30;99.90
47765;DHT22;33529;49.242;8.670;2023-05-07T05:55:28;15.50;99.90
47765;DHT22;33529;49.242;8.670;2023-05-07T05:57:54;15.60;99.90
47765;DHT22;33529;49.242;8.670;2023-05-07T06:00:21;15.70;99.90
47765;DHT22;33529;49.242;8.670;2023-05-07T06:02:57;15.80;99.90
47765;DHT22;33529;49.242;8.670;2023-05-07T06:05:25;16.00;99.90
47765;DHT22;33529;49.242;8.670;2023-05-07T06:07:54;16.10;99.90
47765;DHT22;33529;49.242;8.670;2023-05-07T06:10:21;16.10;99.90
47765;DHT22;33529;49.242;8.670;2023-05-07T06:12:48;16.20;99.90
47765;DHT22;33529;49.242;8.670;2023-05-07T06:15:16;16.20;99.90
47765;DHT22;33529;49.242;8.670;2023-05-07T06:17:43;16.30;99.90
47765;DHT22;33529;49.242;8.670;2023-05-07T06:20:11;16.40;99.90
47765;DHT22;33529;49.242;8.670;2023-05-07T06:22:39;16.30;99.90
47765;DHT22;33529;49.242;8.670;2023-05-07T06:25:08;16.40;99.90
47765;DHT22;33529;49.242;8.670;2023-05-07T06:27:35;16.40;99.90
47765;DHT22;33529;49.242;8.670;2023-05-07T06:30:02;16.50;99.90
47765;DHT22;33529;49.242;8.670;2023-05-07T06:32:29;16.80;99.90
47765;DHT22;33529;49.242;8.670;2023-05-07T06:34:59;17.00;99.90
47765;DHT22;33529;49.242;8.670;2023-05-07T06:37:26;17.00;99.90
47765;DHT22;33529;49.242;8.670;2023-05-07T06:39:57;17.00;99.90
47765;DHT22;33529;49.242;8.670;2023-05-07T06:42:27;17.00;99.90
47765;DHT22;33529;49.242;8.670;2023-05-07T06:45:00;16.80;99.90
47765;DHT22;33529;49.242;8.670;2023-05-07T06:47:30;16.90;99.90
47765;DHT22;33529;49.242;8.670;2023-05-07T06:49:57;17.00;99.90
47765;DHT22;33529;49.242;8.670;2023-05-07T06:52:28;17.10;99.90
47765;DHT22;33529;49.242;8.670;2023-05-07T06:54:55;17.30;99.90
47765;DHT22;33529;49.242;8.670;2023-05-07T06:57:24;17.40;99.90
47765;DHT22;33529;49.242;8.670;2023-05-07T06:59:53;17.40;99.90
47765;DHT22;33529;49.242;8.670;2023-05-07T07:02:21;17.40;99.90
47765;DHT22;33529;49.242;8.670;2023-05-07T07:04:49;17.40;99.90
47765;DHT22;33529;49.242;8.670;2023-05-07T07:07:16;17.40;99.90
47765;DHT22;33529;49.242;8.670;2023-05-07T07:09:45;17.70;99.90
47765;DHT22;33529;49.242;8.670;2023-05-07T07:12:14;17.80;99.90
47765;DHT22;33529;49.242;8.670;2023-05-07T07:14:42;17.90;99.90
47765;DHT22;33529;49.242;8.670;2023-05-07T07:17:09;18.30;99.90
47765;DHT22;33529;49.242;8.670;2023-05-07T07:19:36;18.40;99.90
47765;DHT22;33529;49.242;8.670;2023-05-07T07:22:03;18.60;99.90
47765;DHT22;33529;49.242;8.670;2023-05-07T07:24:31;18.80;99.90
47765;DHT22;33529;49.242;8.670;2023-05-07T07:27:01;18.90;99.90
47765;DHT22;33529;49.242;8.670;2023-05-07T07:29:28;19.00;99.90
47765;DHT22;33529;49.242;8.670;2023-05-07T07:31:56;19.00;99.90
47765;DHT22;33529;49.242;8.670;2023-05-07T07:34:23;19.10;99.90
47765;DHT22;33529;49.242;8.670;2023-05-07T07:36:50;19.20;99.90
47765;DHT22;33529;49.242;8.670;2023-05-07T07:39:18;19.20;99.90
47765;DHT22;33529;49.242;8.670;2023-05-07T07:41:47;19.40;99.90
47765;DHT22;33529;49.242;8.670;2023-05-07T07:44:15;19.60;99.90
47765;DHT22;33529;49.242;8.670;2023-05-07T07:46:48;19.70;99.90
47765;DHT22;33529;49.242;8.670;2023-05-07T07:49:16;19.60;99.90
47765;DHT22;33529;49.242;8.670;2023-05-07T07:51:43;19.70;99.90
47765;DHT22;33529;49.242;8.670;2023-05-07T07:54:11;19.90;99.90
47765;DHT22;33529;49.242;8.670;2023-05-07T07:56:39;20.00;99.90
47765;DHT22;33529;49.242;8.670;2023-05-07T07:59:08;20.10;99.90
47765;DHT22;33529;49.242;8.670;2023-05-07T08:01:38;20.20;99.90
47765;DHT22;33529;49.242;8.670;2023-05-07T08:04:05;20.40;99.90
47765;DHT22;33529;49.242;8.670;2023-05-07T08:06:36;20.60;99.90
47765;DHT22;33529;49.242;8.670;2023-05-07T08:09:05;20.80;99.90
47765;DHT22;33529;49.242;8.670;2023-05-07T08:11:32;21.00;99.90
47765;DHT22;33529;49.242;8.670;2023-05-07T08:14:00;21.20;99.90
47765;DHT22;33529;49.242;8.670;2023-05-07T08:16:27;21.40;99.90
47765;DHT22;33529;49.242;8.670;2023-05-07T08:18:57;21.60;99.90
47765;DHT22;33529;49.242;8.670;2023-05-07T08:21:24;21.90;99.90
47765;DHT22;33529;49.242;8.670;2023-05-07T08:23:51;22.10;99.90
47765;DHT22;33529;49.242;8.670;2023-05-07T08:26:18;22.30;99.80
47765;DHT22;33529;49.242;8.670;2023-05-07T08:28:45;22.40;99.40
47765;DHT22;33529;49.242;8.670;2023-05-07T08:31:12;22.50;99.80
47765;DHT22;33529;49.242;8.670;2023-05-07T08:33:40;22.40;99.10
47765;DHT22;33529;49.242;8.670;2023-05-07T08:36:07;22.50;99.10
47765;DHT22;33529;49.242;8.670;2023-05-07T08:38:34;22.70;98.20
47765;DHT22;33529;49.242;8.670;2023-05-07T08:41:01;22.80;99.30
47765;DHT22;33529;49.242;8.670;2023-05-07T08:43:31;22.80;98.20
47765;DHT22;33529;49.242;8.670;2023-05-07T08:46:01;22.90;99.90
47765;DHT22;33529;49.242;8.670;2023-05-07T08:48:32;22.80;98.40
47765;DHT22;33529;49.242;8.670;2023-05-07T08:51:13;22.70;97.10
47765;DHT22;33529;49.242;8.670;2023-05-07T08:53:41;22.70;98.50
47765;DHT22;33529;49.242;8.670;2023-05-07T08:56:13;22.70;99.00
47765;DHT22;33529;49.242;8.670;2023-05-07T08:58:43;22.80;99.70
47765;DHT22;33529;49.242;8.670;2023-05-07T09:01:13;22.70;98.40
47765;DHT22;33529;49.242;8.670;2023-05-07T09:03:45;23.00;98.70
47765;DHT22;33529;49.242;8.670;2023-05-07T09:06:15;23.20;98.20
47765;DHT22;33529;49.242;8.670;2023-05-07T09:08:52;23.20;99.00
47765;DHT22;33529;49.242;8.670;2023-05-07T09:11:22;23.30;98.10
47765;DHT22;33529;49.242;8.670;2023-05-07T09:13:54;23.50;97.20
47765;DHT22;33529;49.242;8.670;2023-05-07T09:16:31;23.50;97.60
47765;DHT22;33529;49.242;8.670;2023-05-07T09:18:59;23.60;97.40
47765;DHT22;33529;49.242;8.670;2023-05-07T09:21:29;23.70;96.60
47765;DHT22;33529;49.242;8.670;2023-05-07T09:23:59;23.70;96.30
47765;DHT22;33529;49.242;8.670;2023-05-07T09:26:34;23.50;96.40
47765;DHT22;33529;49.242;8.670;2023-05-07T09:29:03;23.80;97.40
47765;DHT22;33529;49.242;8.670;2023-05-07T09:31:30;23.90;95.80
47765;DHT22;33529;49.242;8.670;2023-05-07T09:33:57;24.10;96.50
47765;DHT22;33529;49.242;8.670;2023-05-07T09:36:27;24.20;96.10
47765;DHT22;33529;49.242;8.670;2023-05-07T09:38:54;24.50;96.30
47765;DHT22;33529;49.242;8.670;2023-05-07T09:41:23;24.50;94.40
47765;DHT22;33529;49.242;8.670;2023-05-07T09:44:04;24.50;96.40
47765;DHT22;33529;49.242;8.670;2023-05-07T09:46:39;24.80;95.40
47765;DHT22;33529;49.242;8.670;2023-05-07T09:49:21;24.70;95.00
47765;DHT22;33529;49.242;8.670;2023-05-07T09:51:52;25.10;95.50
47765;DHT22;33529;49.242;8.670;2023-05-07T09:54:22;25.10;95.40
47765;DHT22;33529;49.242;8.670;2023-05-07T09:56:52;25.00;95.40
47765;DHT22;33529;49.242;8.670;2023-05-07T09:59:25;25.10;94.90
47765;DHT22;33529;49.242;8.670;2023-05-07T10:01:59;24.90;95.30
47765;DHT22;33529;49.242;8.670;2023-05-07T10:04:31;24.70;94.90
47765;DHT22;33529;49.242;8.670;2023-05-07T10:06:59;24.60;95.30
47765;DHT22;33529;49.242;8.670;2023-05-07T10:09:28;24.50;95.80
47765;DHT22;33529;49.242;8.670;2023-05-07T10:11:56;24.60;95.70
47765;DHT22;33529;49.242;8.670;2023-05-07T10:14:24;24.80;93.70
47765;DHT22;33529;49.242;8.670;2023-05-07T10:16:53;24.80;95.20
47765;DHT22;33529;49.242;8.670;2023-05-07T10:19:22;24.40;94.40
47765;DHT22;33529;49.242;8.670;2023-05-07T10:21:58;24.40;95.30
47765;DHT22;33529;49.242;8.670;2023-05-07T10:24:36;24.50;95.00
47765;DHT22;33529;49.242;8.670;2023-05-07T10:27:12;24.20;94.30
47765;DHT22;33529;49.242;8.670;2023-05-07T10:30:04;24.30;95.40
47765;DHT22;33529;49.242;8.670;2023-05-07T10:32:53;24.30;94.60
47765;DHT22;33529;49.242;8.670;2023-05-07T10:35:30;24.20;95.40
47765;DHT22;33529;49.242;8.670;2023-05-07T10:38:01;24.30;95.00
47765;DHT22;33529;49.242;8.670;2023-05-07T10:40:31;24.00;94.80
47765;DHT22;33529;49.242;8.670;2023-05-07T10:43:01;23.80;95.10
47765;DHT22;33529;49.242;8.670;2023-05-07T10:45:34;23.90;95.80
47765;DHT22;33529;49.242;8.670;2023-05-07T10:48:29;24.10;96.20
47765;DHT22;33529;49.242;8.670;2023-05-07T10:51:19;24.20;95.80
47765;DHT22;33529;49.242;8.670;2023-05-07T10:56:50;24.60;95.80
47765;DHT22;33529;49.242;8.670;2023-05-07T11:01:54;24.20;94.90
47765;DHT22;33529;49.242;8.670;2023-05-07T11:04:32;23.90;94.90
47765;DHT22;33529;49.242;8.670;2023-05-07T11:07:31;24.00;94.80
47765;DHT22;33529;49.242;8.670;2023-05-07T11:10:04;24.10;95.20
47765;DHT22;33529;49.242;8.670;2023-05-07T11:12:52;24.10;95.50
47765;DHT22;33529;49.242;8.670;2023-05-07T11:15:38;24.10;95.40
47765;DHT22;33529;49.242;8.670;2023-05-07T11:18:16;24.30;95.20
47765;DHT22;33529;49.242;8.670;2023-05-07T11:20:53;24.50;95.40
47765;DHT22;33529;49.242;8.670;2023-05-07T11:26:23;24.90;95.60
47765;DHT22;33529;49.242;8.670;2023-05-07T11:28:51;25.20;94.90
47765;DHT22;33529;49.242;8.670;2023-05-07T11:31:24;25.40;95.20
47765;DHT22;33529;49.242;8.670;2023-05-07T11:33:53;25.50;94.30
47765;DHT22;33529;49.242;8.670;2023-05-07T11:36:22;25.40;92.70
47765;DHT22;33529;49.242;8.670;2023-05-07T11:38:52;25.50;93.40
47765;DHT22;33529;49.242;8.670;2023-05-07T11:41:19;25.50;92.40
47765;DHT22;33529;49.242;8.670;2023-05-07T11:43:55;25.30;92.00
47765;DHT22;33529;49.242;8.670;2023-05-07T11:46:22;25.00;92.10
47765;DHT22;33529;49.242;8.670;2023-05-07T11:48:50;25.00;92.20
47765;DHT22;33529;49.242;8.670;2023-05-07T11:51:22;25.10;91.60
47765;DHT22;33529;49.242;8.670;2023-05-07T11:53:49;24.90;92.40
47765;DHT22;33529;49.242;8.670;2023-05-07T11:56:17;25.00;93.90
47765;DHT22;33529;49.242;8.670;2023-05-07T11:58:46;25.20;91.80
47765;DHT22;33529;49.242;8.670;2023-05-07T12:01:13;25.30;91.50
47765;DHT22;33529;49.242;8.670;2023-05-07T12:03:41;25.30;91.60
47765;DHT22;33529;49.242;8.670;2023-05-07T12:06:16;25.30;91.00
47765;DHT22;33529;49.242;8.670;2023-05-07T12:08:44;25.30;91.80
47765;DHT22;33529;49.242;8.670;2023-05-07T12:11:16;25.40;91.40
47765;DHT22;33529;49.242;8.670;2023-05-07T12:13:44;25.30;91.60
47765;DHT22;33529;49.242;8.670;2023-05-07T12:16:12;25.20;92.30
47765;DHT22;33529;49.242;8.670;2023-05-07T12:18:39;25.50;92.50
47765;DHT22;33529;49.242;8.670;2023-05-07T12:21:06;25.30;91.70
47765;DHT22;33529;49.242;8.670;2023-05-07T12:23:35;25.50;92.30
47765;DHT22;33529;49.242;8.670;2023-05-07T12:26:03;25.80;91.80
47765;DHT22;33529;49.242;8.670;2023-05-07T12:28:39;26.10;91.70
47765;DHT22;33529;49.242;8.670;2023-05-07T12:31:07;26.20;91.90
47765;DHT22;33529;49.242;8.670;2023-05-07T12:33:35;26.00;92.90
47765;DHT22;33529;49.242;8.670;2023-05-07T12:36:08;26.10;92.60
47765;DHT22;33529;49.242;8.670;2023-05-07T12:38:36;26.10;92.30
47765;DHT22;33529;49.242;8.670;2023-05-07T12:41:04;26.20;91.40
47765;DHT22;33529;49.242;8.670;2023-05-07T12:43:31;26.10;92.20
47765;DHT22;33529;49.242;8.670;2023-05-07T12:46:01;25.90;91.50
47765;DHT22;33529;49.242;8.670;2023-05-07T12:48:28;25.90;92.50
47765;DHT22;33529;49.242;8.670;2023-05-07T12:50:56;25.90;92.50
47765;DHT22;33529;49.242;8.670;2023-05-07T12:53:25;25.90;91.70
47765;DHT22;33529;49.242;8.670;2023-05-07T12:55:54;25.90;90.50
47765;DHT22;33529;49.242;8.670;2023-05-07T12:58:26;25.70;90.50
47765;DHT22;33529;49.242;8.670;2023-05-07T13:00:55;25.60;89.60
47765;DHT22;33529;49.242;8.670;2023-05-07T13:03:34;25.60;91.00
47765;DHT22;33529;49.242;8.670;2023-05-07T13:06:07;25.70;90.90
47765;DHT22;33529;49.242;8.670;2023-05-07T13:08:38;25.80;90.70
47765;DHT22;33529;49.242;8.670;2023-05-07T13:11:13;25.80;90.30
47765;DHT22;33529;49.242;8.670;2023-05-07T13:13:40;26.00;91.30
47765;DHT22;33529;49.242;8.670;2023-05-07T13:16:10;26.30;90.90
47765;DHT22;33529;49.242;8.670;2023-05-07T13:18:39;26.20;89.60
47765;DHT22;33529;49.242;8.670;2023-05-07T13:21:07;25.90;89.40
47765;DHT22;33529;49.242;8.670;2023-05-07T13:23:34;25.70;88.90
47765;DHT22;33529;49.242;8.670;2023-05-07T13:26:00;25.60;90.90
47765;DHT22;33529;49.242;8.670;2023-05-07T13:28:37;25.50;90.90
47765;DHT22;33529;49.242;8.670;2023-05-07T13:31:03;25.30;90.50
47765;DHT22;33529;49.242;8.670;2023-05-07T13:33:30;25.20;90.40
47765;DHT22;33529;49.242;8.670;2023-05-07T13:35:57;25.10;90.60
47765;DHT22;33529;49.242;8.670;2023-05-07T13:38:24;25.00;91.20
47765;DHT22;33529;49.242;8.670;2023-05-07T13:40:51;25.10;91.60
47765;DHT22;33529;49.242;8.670;2023-05-07T13:43:17;25.10;91.90
47765;DHT22;33529;49.242;8.670;2023-05-07T13:45:45;25.20;91.20
47765;DHT22;33529;49.242;8.670;2023-05-07T13:48:12;25.00;90.50
47765;DHT22;33529;49.242;8.670;2023-05-07T13:50:38;24.70;91.20
47765;DHT22;33529;49.242;8.670;2023-05-07T13:53:08;24.60;91.20
47765;DHT22;33529;49.242;8.670;2023-05-07T13:55:34;24.50;92.60
47765;DHT22;33529;49.242;8.670;2023-05-07T13:58:02;24.40;93.60
47765;DHT22;33529;49.242;8.670;2023-05-07T14:00:33;24.00;94.60
47765;DHT22;33529;49.242;8.670;2023-05-07T14:03:01;23.20;95.00
47765;DHT22;33529;49.242;8.670;2023-05-07T14:05:28;22.20;99.00
47765;DHT22;33529;49.242;8.670;2023-05-07T14:07:56;21.60;99.90
47765;DHT22;33529;49.242;8.670;2023-05-07T14:10:24;20.30;99.90
47765;DHT22;33529;49.242;8.670;2023-05-07T14:12:51;18.80;99.90
47765;DHT22;33529;49.242;8.670;2023-05-07T14:15:19;17.50;99.90
47765;DHT22;33529;49.242;8.670;2023-05-07T14:17:46;16.80;99.90
47765;DHT22;33529;49.242;8.670;2023-05-07T14:20:13;16.40;99.90
47765;DHT22;33529;49.242;8.670;2023-05-07T14:22:40;16.10;99.90
47765;DHT22;33529;49.242;8.670;2023-05-07T14:25:07;15.90;99.90
47765;DHT22;33529;49.242;8.670;2023-05-07T14:27:36;15.70;99.90
47765;DHT22;33529;49.242;8.670;2023-05-07T14:30:03;15.50;99.90
47765;DHT22;33529;49.242;8.670;2023-05-07T14:32:31;15.50;99.90
47765;DHT22;33529;49.242;8.670;2023-05-07T14:34:58;15.50;99.90
47765;DHT22;33529;49.242;8.670;2023-05-07T14:37:25;15.50;99.90
47765;DHT22;33529;49.242;8.670;2023-05-07T14:39:52;15.40;99.90
47765;DHT22;33529;49.242;8.670;2023-05-07T14:42:18;15.60;99.90
47765;DHT22;33529;49.242;8.670;2023-05-07T14:44:46;15.60;99.90
47765;DHT22;33529;49.242;8.670;2023-05-07T14:47:14;15.50;99.90
47765;DHT22;33529;49.242;8.670;2023-05-07T14:49:45;15.60;99.90
47765;DHT22;33529;49.242;8.670;2023-05-07T14:52:12;15.50;99.90
47765;DHT22;33529;49.242;8.670;2023-05-07T14:54:39;15.60;99.90
47765;DHT22;33529;49.242;8.670;2023-05-07T14:57:07;15.50;99.90
47765;DHT22;33529;49.242;8.670;2023-05-07T14:59:34;15.50;99.90
47765;DHT22;33529;49.242;8.670;2023-05-07T15:02:01;15.50;99.90
47765;DHT22;33529;49.242;8.670;2023-05-07T15:04:34;15.50;99.90
47765;DHT22;33529;49.242;8.670;2023-05-07T15:07:01;15.40;99.90
47765;DHT22;33529;49.242;8.670;2023-05-07T15:09:29;15.40;99.90
47765;DHT22;33529;49.242;8.670;2023-05-07T15:11:56;15.40;99.90
47765;DHT22;33529;49.242;8.670;2023-05-07T15:14:23;15.40;99.90
47765;DHT22;33529;49.242;8.670;2023-05-07T15:16:52;15.40;99.90
47765;DHT22;33529;49.242;8.670;2023-05-07T15:19:18;15.40;99.90
47765;DHT22;33529;49.242;8.670;2023-05-07T15:21:50;15.40;99.90
47765;DHT22;33529;49.242;8.670;2023-05-07T15:24:19;15.40;99.90
47765;DHT22;33529;49.242;8.670;2023-05-07T15:26:51;15.30;99.90
47765;DHT22;33529;49.242;8.670;2023-05-07T15:29:18;15.40;99.90
47765;DHT22;33529;49.242;8.670;2023-05-07T15:31:45;15.30;99.90
47765;DHT22;33529;49.242;8.670;2023-05-07T15:34:12;15.30;99.90
47765;DHT22;33529;49.242;8.670;2023-05-07T15:36:41;15.20;99.90
47765;DHT22;33529;49.242;8.670;2023-05-07T15:39:08;15.20;99.90
47765;DHT22;33529;49.242;8.670;2023-05-07T15:41:34;15.00;99.90
47765;DHT22;33529;49.242;8.670;2023-05-07T15:44:03;14.80;99.90
47765;DHT22;33529;49.242;8.670;2023-05-07T15:46:30;14.70;99.90
47765;DHT22;33529;49.242;8.670;2023-05-07T15:48:57;14.70;99.90
47765;DHT22;33529;49.242;8.670;2023-05-07T15:51:24;14.60;99.90